createdAt,value
2018-09-08T00:00:03.053Z,0.00
2018-09-08T00:01:03.000Z,0.00
2018-09-08T00:02:02.688Z,0.00
2018-09-08T00:03:02.729Z,0.00
2018-09-08T00:04:02.951Z,0.00
2018-09-08T00:05:02.711Z,0.00
2018-09-08T00:06:02.622Z,0.00
2018-09-08T00:07:02.601Z,0.00
2018-09-08T00:08:02.737Z,0.00
2018-09-08T00:09:02.566Z,0.00
2018-09-08T00:10:02.911Z,0.00
2018-09-08T00:11:02.573Z,0.00
2018-09-08T00:12:02.555Z,0.00
2018-09-08T00:13:02.494Z,0.00
2018-09-08T00:14:02.623Z,0.00
2018-09-08T00:15:02.460Z,0.00
2018-09-08T00:16:02.755Z,0.00
2018-09-08T00:17:02.413Z,0.00
2018-09-08T00:18:02.753Z,0.00
2018-09-08T00:19:02.379Z,0.00
2018-09-08T00:20:02.490Z,0.00
2018-09-08T00:21:02.521Z,0.00
2018-09-08T00:22:02.714Z,0.00
2018-09-08T00:23:02.481Z,0.00
2018-09-08T00:24:02.573Z,0.00
2018-09-08T00:25:02.284Z,0.00
2018-09-08T00:26:03.195Z,0.00
2018-09-08T00:27:02.277Z,0.00
2018-09-08T00:28:03.774Z,0.00
2018-09-08T00:29:02.212Z,0.00
2018-09-08T00:30:02.255Z,0.00
2018-09-08T00:31:02.354Z,0.00
2018-09-08T00:32:02.375Z,0.00
2018-09-08T00:33:02.244Z,0.00
2018-09-08T00:34:02.414Z,0.00
2018-09-08T00:35:02.090Z,0.00
2018-09-08T00:36:02.182Z,0.00
2018-09-08T00:37:02.065Z,0.00
2018-09-08T00:38:02.175Z,0.00
2018-09-08T00:39:02.076Z,0.00
2018-09-08T00:40:02.336Z,0.00
2018-09-08T00:41:01.994Z,0.00
2018-09-08T00:42:03.274Z,0.00
2018-09-08T00:43:01.955Z,0.00
2018-09-08T00:44:01.934Z,0.00
2018-09-08T00:45:01.920Z,0.00
2018-09-08T00:46:01.905Z,0.00
2018-09-08T00:47:02.233Z,0.00
2018-09-08T00:48:01.857Z,0.00
2018-09-08T00:49:01.837Z,0.00
2018-09-08T00:50:01.833Z,0.00
2018-09-08T00:51:02.227Z,0.00
2018-09-08T00:52:01.821Z,0.00
2018-09-08T00:53:01.913Z,0.00
2018-09-08T00:54:02.422Z,0.00
2018-09-08T00:55:01.845Z,0.00
2018-09-08T00:56:01.746Z,0.00
2018-09-08T00:57:01.768Z,0.00
2018-09-08T00:58:01.704Z,0.00
2018-09-08T00:59:01.662Z,0.00
2018-09-08T01:00:01.691Z,0.00
2018-09-08T01:01:01.923Z,0.00
2018-09-08T01:02:01.664Z,0.00
2018-09-08T01:03:01.593Z,0.00
2018-09-08T01:04:01.571Z,0.00
2018-09-08T01:05:01.584Z,0.00
2018-09-08T01:06:01.586Z,0.00
2018-09-08T01:07:01.553Z,0.00
2018-09-08T01:08:01.856Z,0.00
2018-09-08T01:09:01.509Z,0.00
2018-09-08T01:10:01.580Z,0.00
2018-09-08T01:11:01.542Z,0.00
2018-09-08T01:12:01.472Z,0.00
2018-09-08T01:13:01.448Z,0.00
2018-09-08T01:14:01.387Z,0.00
2018-09-08T01:15:01.700Z,0.00
2018-09-08T01:16:01.355Z,0.00
2018-09-08T01:17:01.337Z,0.00
2018-09-08T01:18:01.326Z,0.00
2018-09-08T01:19:01.301Z,0.00
2018-09-08T01:20:01.333Z,0.00
2018-09-08T01:21:01.312Z,0.00
2018-09-08T01:22:01.808Z,0.00
2018-09-08T01:23:01.361Z,0.00
2018-09-08T01:24:01.209Z,0.00
2018-09-08T01:25:01.260Z,0.00
2018-09-08T01:26:01.264Z,0.00
2018-09-08T01:30:01.774Z,0.00
2018-09-08T01:31:01.183Z,0.00
2018-09-08T01:32:01.187Z,0.00
2018-09-08T01:33:01.090Z,0.00
2018-09-08T01:34:01.264Z,0.00
2018-09-08T01:35:01.014Z,0.00
2018-09-08T01:36:01.354Z,0.00
2018-09-08T01:38:00.959Z,0.00
2018-09-08T01:39:00.943Z,0.00
2018-09-08T01:40:00.919Z,0.00
2018-09-08T01:41:00.951Z,0.00
2018-09-08T01:42:01.207Z,0.00
2018-09-08T01:43:00.912Z,0.00
2018-09-08T01:45:00.827Z,0.00
2018-09-08T01:46:00.830Z,0.00
2018-09-08T01:47:00.795Z,0.00
2018-09-08T01:48:01.120Z,0.00
2018-09-08T01:49:00.771Z,0.00
2018-09-08T01:50:00.802Z,0.00
2018-09-08T01:51:01.016Z,0.00
2018-09-08T01:53:00.870Z,0.00
2018-09-08T01:54:01.076Z,0.00
2018-09-08T01:55:00.689Z,0.00
2018-09-08T01:56:00.735Z,0.00
2018-09-08T01:57:01.304Z,0.00
2018-09-08T01:58:00.657Z,0.00
2018-09-08T01:59:00.613Z,0.00
2018-09-08T02:00:00.930Z,0.00
2018-09-08T02:01:00.541Z,0.00
2018-09-08T02:02:00.515Z,0.00
2018-09-08T02:03:00.499Z,0.00
2018-09-08T02:04:00.482Z,0.00
2018-09-08T02:05:00.463Z,0.00
2018-09-08T02:06:00.864Z,0.00
2018-09-08T02:07:00.765Z,0.00
2018-09-08T02:08:00.553Z,0.00
2018-09-08T02:09:00.538Z,0.00
2018-09-08T02:10:00.410Z,0.00
2018-09-08T02:11:00.448Z,0.00
2018-09-08T02:12:00.399Z,0.00
2018-09-08T02:13:00.682Z,0.00
2018-09-08T02:15:00.395Z,0.00
2018-09-08T02:16:00.261Z,0.00
2018-09-08T02:17:00.261Z,0.00
2018-09-08T02:18:00.325Z,0.00
2018-09-08T02:19:00.265Z,0.00
2018-09-08T02:20:00.516Z,0.00
2018-09-08T02:22:00.159Z,0.00
2018-09-08T02:23:00.142Z,0.00
2018-09-08T02:24:00.175Z,0.00
2018-09-08T02:25:00.162Z,0.00
2018-09-08T02:26:00.085Z,0.00
2018-09-08T02:27:00.375Z,0.00
2018-09-08T02:28:00.443Z,0.00
2018-09-08T02:29:00.027Z,0.00
2018-09-08T02:30:00.197Z,0.00
2018-09-08T02:31:00.037Z,0.00
2018-09-08T02:31:59.979Z,0.00
2018-09-08T02:33:00.009Z,0.00
2018-09-08T02:35:00.227Z,0.00
2018-09-08T02:36:59.884Z,0.00
2018-09-08T02:37:59.872Z,0.00
2018-09-08T02:38:59.928Z,0.00
2018-09-08T02:39:59.857Z,0.00
2018-09-08T02:40:59.812Z,0.00
2018-09-08T02:42:00.095Z,0.00
2018-09-08T02:42:59.806Z,0.00
2018-09-08T02:43:59.873Z,0.00
2018-09-08T02:45:00.031Z,0.00
2018-09-08T02:45:59.797Z,0.00
2018-09-08T02:46:59.834Z,0.00
2018-09-08T02:47:59.686Z,0.00
2018-09-08T02:48:59.958Z,0.00
2018-09-08T02:49:59.657Z,0.00
2018-09-08T02:50:59.712Z,0.00
2018-09-08T02:52:59.685Z,0.00
2018-09-08T02:53:59.677Z,0.00
2018-09-08T02:54:59.553Z,0.00
2018-09-08T02:55:59.831Z,0.00
2018-09-08T02:57:59.548Z,0.00
2018-09-08T02:58:59.527Z,0.00
2018-09-08T02:59:59.496Z,0.00
2018-09-08T03:01:01.264Z,0.00
2018-09-08T03:01:59.849Z,0.00
2018-09-08T03:02:59.426Z,0.00
2018-09-08T03:03:59.454Z,0.00
2018-09-08T03:04:59.369Z,0.00
2018-09-08T03:05:59.421Z,0.00
2018-09-08T03:06:59.344Z,0.00
2018-09-08T03:07:59.755Z,0.00
2018-09-08T03:10:00.042Z,0.00
2018-09-08T03:10:59.357Z,0.00
2018-09-08T03:11:59.414Z,0.00
2018-09-08T03:12:59.323Z,0.00
2018-09-08T03:13:59.501Z,0.00
2018-09-08T03:14:59.188Z,0.00
2018-09-08T03:15:59.165Z,0.00
2018-09-08T03:16:59.163Z,0.00
2018-09-08T03:17:59.181Z,0.00
2018-09-08T03:18:59.117Z,0.00
2018-09-08T03:19:59.399Z,0.00
2018-09-08T03:20:59.083Z,0.00
2018-09-08T03:21:59.067Z,0.00
2018-09-08T03:22:59.046Z,0.00
2018-09-08T03:23:59.078Z,0.00
2018-09-08T03:24:59.023Z,0.00
2018-09-08T03:25:59.300Z,0.00
2018-09-08T03:26:58.969Z,0.00
2018-09-08T03:27:58.955Z,0.00
2018-09-08T03:28:58.939Z,0.00
2018-09-08T03:29:58.918Z,0.00
2018-09-08T03:30:58.899Z,0.00
2018-09-08T03:31:59.194Z,0.00
2018-09-08T03:32:58.912Z,0.00
2018-09-08T03:33:58.846Z,0.00
2018-09-08T03:34:58.826Z,0.00
2018-09-08T03:35:58.807Z,0.00
2018-09-08T03:36:58.790Z,0.00
2018-09-08T03:37:58.775Z,0.00
2018-09-08T03:38:59.057Z,0.00
2018-09-08T03:39:58.741Z,0.00
2018-09-08T03:40:58.720Z,0.00
2018-09-08T03:41:58.802Z,0.00
2018-09-08T03:42:58.734Z,0.00
2018-09-08T03:43:58.666Z,0.00
2018-09-08T03:44:58.650Z,0.00
2018-09-08T03:45:58.932Z,0.00
2018-09-08T03:46:58.613Z,0.00
2018-09-08T03:47:58.603Z,0.00
2018-09-08T03:48:58.927Z,0.00
2018-09-08T03:49:58.568Z,0.00
2018-09-08T03:50:58.539Z,0.00
2018-09-08T03:51:58.524Z,0.00
2018-09-08T03:52:58.804Z,0.00
2018-09-08T03:53:58.491Z,0.00
2018-09-08T03:54:58.471Z,0.00
2018-09-08T03:55:58.450Z,0.00
2018-09-08T03:56:58.435Z,0.00
2018-09-08T03:57:58.425Z,0.00
2018-09-08T03:58:58.422Z,0.00
2018-09-08T03:59:58.679Z,0.00
2018-09-08T04:00:58.363Z,0.00
2018-09-08T04:01:58.345Z,0.00
2018-09-08T04:02:58.335Z,0.00
2018-09-08T04:03:58.358Z,0.00
2018-09-08T04:04:58.338Z,0.00
2018-09-08T04:05:58.287Z,0.00
2018-09-08T04:07:58.542Z,0.00
2018-09-08T04:08:58.287Z,0.00
2018-09-08T04:09:58.217Z,0.00
2018-09-08T04:10:58.265Z,0.00
2018-09-08T04:11:58.213Z,0.00
2018-09-08T04:12:58.146Z,4.00
2018-09-08T04:13:58.232Z,0.00
2018-09-08T04:14:58.410Z,0.00
2018-09-08T04:15:58.145Z,4.00
2018-09-08T04:16:58.072Z,0.00
2018-09-08T04:17:58.086Z,4.00
2018-09-08T04:18:58.040Z,4.00
2018-09-08T04:20:58.101Z,4.00
2018-09-08T04:21:58.285Z,4.00
2018-09-08T04:22:57.963Z,4.00
2018-09-08T04:23:58.008Z,4.00
2018-09-08T04:24:57.927Z,8.00
2018-09-08T04:25:57.909Z,12.00
2018-09-08T04:26:57.945Z,8.00
2018-09-08T04:27:58.179Z,12.00
2018-09-08T04:28:57.865Z,16.00
2018-09-08T04:29:57.840Z,16.00
2018-09-08T04:30:57.823Z,20.00
2018-09-08T04:31:57.799Z,24.00
2018-09-08T04:32:57.787Z,24.00
2018-09-08T04:33:58.115Z,28.00
2018-09-08T04:34:57.754Z,28.00
2018-09-08T04:35:57.728Z,36.00
2018-09-08T04:36:57.714Z,40.00
2018-09-08T04:37:57.752Z,44.00
2018-09-08T04:38:57.682Z,48.00
2018-09-08T04:39:57.957Z,52.00
2018-09-08T04:40:57.665Z,56.00
2018-09-08T04:41:57.629Z,64.00
2018-09-08T04:42:57.603Z,68.00
2018-09-08T04:43:57.653Z,72.00
2018-09-08T04:44:57.565Z,80.00
2018-09-08T04:45:57.850Z,88.00
2018-09-08T04:46:57.531Z,92.00
2018-09-08T04:47:57.520Z,100.00
2018-09-08T04:49:57.484Z,108.00
2018-09-08T04:50:57.462Z,120.00
2018-09-08T04:51:57.799Z,124.00
2018-09-08T04:52:57.478Z,132.00
2018-09-08T04:53:57.410Z,140.00
2018-09-08T04:54:57.444Z,152.00
2018-09-08T04:55:57.445Z,160.00
2018-09-08T04:56:57.398Z,164.00
2018-09-08T04:57:57.689Z,172.00
2018-09-08T04:58:57.317Z,176.00
2018-09-08T04:59:57.312Z,188.00
2018-09-08T05:00:57.283Z,192.00
2018-09-08T05:01:57.267Z,204.00
2018-09-08T05:02:57.297Z,216.00
2018-09-08T05:03:57.224Z,244.00
2018-09-08T05:04:57.507Z,256.00
2018-09-08T05:06:57.172Z,260.00
2018-09-08T05:07:57.201Z,264.00
2018-09-08T05:08:57.241Z,268.00
2018-09-08T05:09:57.135Z,280.00
2018-09-08T05:10:57.099Z,288.00
2018-09-08T05:11:57.377Z,296.00
2018-09-08T05:12:57.064Z,300.00
2018-09-08T05:13:57.090Z,312.00
2018-09-08T05:15:57.002Z,328.00
2018-09-08T05:16:57.147Z,336.00
2018-09-08T05:17:56.972Z,344.00
2018-09-08T05:18:57.253Z,356.00
2018-09-08T05:19:56.936Z,360.00
2018-09-08T05:20:57.096Z,360.00
2018-09-08T05:21:56.975Z,372.00
2018-09-08T05:22:56.938Z,392.00
2018-09-08T05:23:56.907Z,412.00
2018-09-08T05:24:56.863Z,404.00
2018-09-08T05:25:57.123Z,408.00
2018-09-08T05:26:56.806Z,404.00
2018-09-08T05:27:56.792Z,428.00
2018-09-08T05:28:56.771Z,436.00
2018-09-08T05:29:56.803Z,460.00
2018-09-08T05:30:56.737Z,504.00
2018-09-08T05:32:00.239Z,484.00
2018-09-08T05:32:56.995Z,508.00
2018-09-08T05:33:56.833Z,508.00
2018-09-08T05:34:56.714Z,512.00
2018-09-08T05:35:56.972Z,520.00
2018-09-08T05:36:56.630Z,544.00
2018-09-08T05:37:56.742Z,560.00
2018-09-08T05:38:56.820Z,564.00
2018-09-08T05:39:56.927Z,544.00
2018-09-08T05:40:56.557Z,528.00
2018-09-08T05:41:56.584Z,536.00
2018-09-08T05:42:56.617Z,532.00
2018-09-08T05:43:56.499Z,512.00
2018-09-08T05:44:56.483Z,584.00
2018-09-08T05:45:56.466Z,536.00
2018-09-08T05:46:56.796Z,504.00
2018-09-08T05:47:56.563Z,532.00
2018-09-08T05:49:56.404Z,540.00
2018-09-08T05:51:56.460Z,536.00
2018-09-08T05:52:56.687Z,552.00
2018-09-08T05:53:57.897Z,536.00
2018-09-08T05:54:56.307Z,544.00
2018-09-08T05:55:56.284Z,588.00
2018-09-08T05:56:56.270Z,608.00
2018-09-08T05:57:56.853Z,648.00
2018-09-08T05:58:56.582Z,720.00
2018-09-08T05:59:56.365Z,724.00
2018-09-08T06:00:56.266Z,628.00
2018-09-08T06:01:56.226Z,692.00
2018-09-08T06:02:56.161Z,624.00
2018-09-08T06:03:56.143Z,800.00
2018-09-08T06:04:56.425Z,648.00
2018-09-08T06:05:56.107Z,704.00
2018-09-08T06:06:56.093Z,736.00
2018-09-08T06:07:56.127Z,968.00
2018-09-08T06:08:56.054Z,640.00
2018-09-08T06:09:56.040Z,628.00
2018-09-08T06:10:56.329Z,544.00
2018-09-08T06:11:56.004Z,528.00
2018-09-08T06:12:56.152Z,504.00
2018-09-08T06:13:56.019Z,576.00
2018-09-08T06:14:55.954Z,564.00
2018-09-08T06:15:55.941Z,512.00
2018-09-08T06:16:56.467Z,492.00
2018-09-08T06:17:55.904Z,564.00
2018-09-08T06:18:56.007Z,708.00
2018-09-08T06:19:55.872Z,664.00
2018-09-08T06:20:55.849Z,932.00
2018-09-08T06:21:55.834Z,928.00
2018-09-08T06:22:56.216Z,800.00
2018-09-08T06:23:56.603Z,868.00
2018-09-08T06:24:56.006Z,744.00
2018-09-08T06:25:56.064Z,860.00
2018-09-08T06:26:55.751Z,772.00
2018-09-08T06:27:55.743Z,664.00
2018-09-08T06:28:56.083Z,692.00
2018-09-08T06:29:55.700Z,688.00
2018-09-08T06:30:55.883Z,720.00
2018-09-08T06:31:56.072Z,636.00
2018-09-08T06:32:55.697Z,644.00
2018-09-08T06:33:55.702Z,656.00
2018-09-08T06:34:55.675Z,748.00
2018-09-08T06:35:55.892Z,680.00
2018-09-08T06:36:55.575Z,804.00
2018-09-08T06:37:55.629Z,776.00
2018-09-08T06:38:55.601Z,692.00
2018-09-08T06:39:55.582Z,692.00
2018-09-08T06:40:55.512Z,728.00
2018-09-08T06:41:55.548Z,696.00
2018-09-08T06:42:55.935Z,704.00
2018-09-08T06:43:55.465Z,716.00
2018-09-08T06:44:55.522Z,720.00
2018-09-08T06:46:55.408Z,756.00
2018-09-08T06:48:55.750Z,724.00
2018-09-08T06:49:55.409Z,768.00
2018-09-08T06:50:55.337Z,768.00
2018-09-08T06:51:55.333Z,792.00
2018-09-08T06:52:55.313Z,780.00
2018-09-08T06:53:55.303Z,932.00
2018-09-08T06:54:55.287Z,780.00
2018-09-08T06:55:55.620Z,784.00
2018-09-08T06:56:55.257Z,920.00
2018-09-08T06:58:55.225Z,796.00
2018-09-08T06:59:55.248Z,824.00
2018-09-08T07:00:55.173Z,808.00
2018-09-08T07:01:55.164Z,848.00
2018-09-08T07:02:55.143Z,784.00
2018-09-08T07:03:55.194Z,824.00
2018-09-08T07:04:55.114Z,796.00
2018-09-08T07:05:55.142Z,756.00
2018-09-08T07:06:55.073Z,796.00
2018-09-08T07:07:55.060Z,788.00
2018-09-08T07:08:55.395Z,756.00
2018-09-08T07:09:55.024Z,816.00
2018-09-08T07:10:55.010Z,836.00
2018-09-08T07:11:55.073Z,760.00
2018-09-08T07:12:54.977Z,732.00
2018-09-08T07:13:54.959Z,752.00
2018-09-08T07:14:54.945Z,796.00
2018-09-08T07:15:55.235Z,844.00
2018-09-08T07:16:55.085Z,856.00
2018-09-08T07:17:55.131Z,1020.00
2018-09-08T07:18:54.971Z,896.00
2018-09-08T07:19:54.858Z,1280.00
2018-09-08T07:20:54.848Z,976.00
2018-09-08T07:21:55.127Z,1088.00
2018-09-08T07:23:54.852Z,1140.00
2018-09-08T07:24:54.819Z,1124.00
2018-09-08T07:25:54.761Z,1092.00
2018-09-08T07:26:54.748Z,1328.00
2018-09-08T07:27:55.143Z,1268.00
2018-09-08T07:28:54.723Z,1196.00
2018-09-08T07:29:54.697Z,1180.00
2018-09-08T07:30:54.768Z,1204.00
2018-09-08T07:31:54.664Z,1216.00
2018-09-08T07:32:54.654Z,1092.00
2018-09-08T07:33:54.934Z,1128.00
2018-09-08T07:34:54.673Z,1196.00
2018-09-08T07:35:54.606Z,1020.00
2018-09-08T07:36:54.586Z,1364.00
2018-09-08T07:37:54.574Z,1320.00
2018-09-08T07:38:54.572Z,1180.00
2018-09-08T07:40:54.824Z,1156.00
2018-09-08T07:41:54.560Z,1324.00
2018-09-08T07:42:54.494Z,1392.00
2018-09-08T07:43:54.480Z,1216.00
2018-09-08T07:44:54.463Z,1272.00
2018-09-08T07:45:54.501Z,1376.00
2018-09-08T07:47:55.112Z,1320.00
2018-09-08T07:48:54.409Z,1356.00
2018-09-08T07:50:54.376Z,1424.00
2018-09-08T07:51:55.563Z,1340.00
2018-09-08T07:52:54.355Z,1320.00
2018-09-08T07:53:55.349Z,1376.00
2018-09-08T07:54:54.359Z,1368.00
2018-09-08T07:55:54.298Z,1356.00
2018-09-08T07:57:54.265Z,1412.00
2018-09-08T07:58:54.344Z,1544.00
2018-09-08T07:59:54.595Z,1384.00
2018-09-08T08:00:54.221Z,1424.00
2018-09-08T08:01:54.210Z,1464.00
2018-09-08T08:02:54.187Z,1408.00
2018-09-08T08:03:54.179Z,1528.00
2018-09-08T08:04:54.167Z,1508.00
2018-09-08T08:05:54.143Z,1448.00
2018-09-08T08:06:54.133Z,1480.00
2018-09-08T08:07:54.294Z,1524.00
2018-09-08T08:08:54.156Z,1436.00
2018-09-08T08:09:54.155Z,1552.00
2018-09-08T08:10:54.377Z,1548.00
2018-09-08T08:11:54.056Z,1592.00
2018-09-08T08:12:54.348Z,1576.00
2018-09-08T08:13:54.049Z,1812.00
2018-09-08T08:14:54.028Z,1696.00
2018-09-08T08:15:54.003Z,1628.00
2018-09-08T08:16:54.293Z,1888.00
2018-09-08T08:17:53.983Z,1592.00
2018-09-08T08:18:54.059Z,1592.00
2018-09-08T08:19:54.255Z,1552.00
2018-09-08T08:20:53.933Z,1544.00
2018-09-08T08:21:53.920Z,1592.00
2018-09-08T08:22:54.292Z,1932.00
2018-09-08T08:23:53.886Z,1612.00
2018-09-08T08:24:53.881Z,1544.00
2018-09-08T08:25:53.958Z,1660.00
2018-09-08T08:26:54.154Z,1708.00
2018-09-08T08:28:53.822Z,1684.00
2018-09-08T08:29:53.806Z,1800.00
2018-09-08T08:30:53.795Z,1884.00
2018-09-08T08:31:53.786Z,2068.00
2018-09-08T08:32:53.798Z,2332.00
2018-09-08T08:33:54.102Z,1788.00
2018-09-08T08:34:53.792Z,1416.00
2018-09-08T08:35:56.758Z,1876.00
2018-09-08T08:36:53.779Z,1980.00
2018-09-08T08:37:53.835Z,2028.00
2018-09-08T08:39:54.020Z,3576.00
2018-09-08T08:40:53.715Z,4004.00
2018-09-08T08:41:53.697Z,3928.00
2018-09-08T08:42:53.700Z,3732.00
2018-09-08T08:43:53.635Z,3188.00
2018-09-08T08:44:53.610Z,3252.00
2018-09-08T08:45:53.665Z,2988.00
2018-09-08T08:46:55.412Z,2920.00
2018-09-08T08:47:54.364Z,2776.00
2018-09-08T08:48:53.577Z,2420.00
2018-09-08T08:49:53.628Z,2460.00
2018-09-08T08:50:53.530Z,2100.00
2018-09-08T08:51:53.518Z,2280.00
2018-09-08T08:52:53.699Z,3948.00
2018-09-08T08:53:53.837Z,3344.00
2018-09-08T08:54:53.475Z,5608.00
2018-09-08T08:55:53.539Z,4164.00
2018-09-08T08:56:53.536Z,4896.00
2018-09-08T08:57:53.490Z,3736.00
2018-09-08T08:59:58.829Z,2872.00
2018-09-08T09:00:53.599Z,3456.00
2018-09-08T09:01:53.388Z,3168.00
2018-09-08T09:02:53.759Z,2016.00
2018-09-08T09:03:53.434Z,1876.00
2018-09-08T09:04:53.393Z,2212.00
2018-09-08T09:05:53.335Z,3068.00
2018-09-08T09:06:53.975Z,3204.00
2018-09-08T09:07:53.303Z,4316.00
2018-09-08T09:08:53.311Z,5620.00
2018-09-08T09:09:53.344Z,7612.00
2018-09-08T09:10:53.269Z,5080.00
2018-09-08T09:11:54.168Z,4444.00
2018-09-08T09:12:53.328Z,5812.00
2018-09-08T09:13:53.236Z,4448.00
2018-09-08T09:14:53.289Z,4240.00
2018-09-08T09:15:53.359Z,2904.00
2018-09-08T09:16:53.204Z,2212.00
2018-09-08T09:17:53.552Z,2644.00
2018-09-08T09:18:53.546Z,2932.00
2018-09-08T09:19:53.159Z,2948.00
2018-09-08T09:20:53.198Z,3400.00
2018-09-08T09:21:53.301Z,2688.00
2018-09-08T09:22:53.348Z,2604.00
2018-09-08T09:23:53.419Z,3120.00
2018-09-08T09:24:53.817Z,2924.00
2018-09-08T09:25:53.090Z,3092.00
2018-09-08T09:26:53.072Z,2756.00
2018-09-08T09:27:53.063Z,2980.00
2018-09-08T09:28:53.047Z,2928.00
2018-09-08T09:29:53.334Z,4224.00
2018-09-08T09:30:53.029Z,4256.00
2018-09-08T09:31:53.086Z,3192.00
2018-09-08T09:33:52.980Z,6120.00
2018-09-08T09:34:53.395Z,5652.00
2018-09-08T09:35:53.455Z,5124.00
2018-09-08T09:36:52.952Z,6204.00
2018-09-08T09:37:53.183Z,5452.00
2018-09-08T09:38:53.017Z,3328.00
2018-09-08T09:39:52.909Z,5004.00
2018-09-08T09:40:53.192Z,4056.00
2018-09-08T09:41:53.095Z,3336.00
2018-09-08T09:42:53.241Z,3772.00
2018-09-08T09:43:52.853Z,4064.00
2018-09-08T09:44:52.843Z,6232.00
2018-09-08T09:45:52.829Z,5868.00
2018-09-08T09:46:52.873Z,4176.00
2018-09-08T09:47:52.814Z,8284.00
2018-09-08T09:48:52.794Z,6932.00
2018-09-08T09:49:54.041Z,6428.00
2018-09-08T09:50:53.847Z,5564.00
2018-09-08T09:51:53.510Z,5696.00
2018-09-08T09:52:53.763Z,3336.00
2018-09-08T09:53:53.683Z,3124.00
2018-09-08T09:54:52.722Z,3816.00
2018-09-08T09:55:52.707Z,2436.00
2018-09-08T09:56:52.996Z,3164.00
2018-09-08T09:58:52.672Z,5420.00
2018-09-08T09:59:52.660Z,5276.00
2018-09-08T10:00:52.707Z,5416.00
2018-09-08T10:02:53.515Z,4424.00
2018-09-08T10:03:52.777Z,3228.00
2018-09-08T10:04:52.603Z,5112.00
2018-09-08T10:05:52.588Z,5632.00
2018-09-08T10:06:52.880Z,3852.00
2018-09-08T10:07:52.567Z,4020.00
2018-09-08T10:08:52.608Z,5712.00
2018-09-08T10:09:52.594Z,2344.00
2018-09-08T10:11:53.321Z,5676.00
2018-09-08T10:12:52.559Z,4912.00
2018-09-08T10:13:52.500Z,5568.00
2018-09-08T10:14:52.631Z,5148.00
2018-09-08T10:15:53.078Z,5624.00
2018-09-08T10:16:52.997Z,2544.00
2018-09-08T10:17:52.464Z,5580.00
2018-09-08T10:18:54.224Z,3988.00
2018-09-08T10:19:52.465Z,2384.00
2018-09-08T10:20:52.513Z,9468.00
2018-09-08T10:21:52.681Z,2844.00
2018-09-08T10:22:52.943Z,4988.00
2018-09-08T10:24:04.340Z,4716.00
2018-09-08T10:24:52.449Z,5004.00
2018-09-08T10:25:53.584Z,6480.00
2018-09-08T10:26:52.832Z,4888.00
2018-09-08T10:31:52.897Z,5652.00
2018-09-08T10:32:52.289Z,5328.00
2018-09-08T10:33:52.278Z,5424.00
2018-09-08T10:34:52.331Z,5304.00
2018-09-08T10:35:52.257Z,6280.00
2018-09-08T10:36:52.254Z,5508.00
2018-09-08T10:37:52.374Z,5260.00
2018-09-08T10:38:52.528Z,6132.00
2018-09-08T10:39:52.212Z,7836.00
2018-09-08T10:40:52.200Z,5864.00
2018-09-08T10:41:52.188Z,7576.00
2018-09-08T10:43:52.324Z,6628.00
2018-09-08T10:44:52.463Z,6776.00
2018-09-08T10:45:52.150Z,6136.00
2018-09-08T10:46:52.139Z,7136.00
2018-09-08T10:47:52.123Z,5908.00
2018-09-08T10:48:52.115Z,6480.00
2018-09-08T10:49:52.255Z,5476.00
2018-09-08T10:50:52.119Z,5436.00
2018-09-08T10:51:52.380Z,6360.00
2018-09-08T10:52:52.084Z,5488.00
2018-09-08T10:53:52.116Z,4416.00
2018-09-08T10:54:52.278Z,6336.00
2018-09-08T10:55:52.360Z,4368.00
2018-09-08T10:56:52.031Z,4676.00
2018-09-08T10:57:52.563Z,5164.00
2018-09-08T10:58:52.104Z,4152.00
2018-09-08T11:00:52.016Z,3508.00
2018-09-08T11:01:52.108Z,5660.00
2018-09-08T11:02:52.299Z,5680.00
2018-09-08T11:03:52.245Z,6360.00
2018-09-08T11:04:51.974Z,5916.00
2018-09-08T11:05:51.934Z,5240.00
2018-09-08T11:06:51.969Z,7068.00
2018-09-08T11:07:52.058Z,6692.00
2018-09-08T11:08:51.890Z,6364.00
2018-09-08T11:09:51.880Z,7360.00
2018-09-08T11:10:52.167Z,4744.00
2018-09-08T11:11:51.859Z,4760.00
2018-09-08T11:12:51.895Z,6048.00
2018-09-08T11:13:52.131Z,5916.00
2018-09-08T11:14:51.821Z,5092.00
2018-09-08T11:15:51.891Z,5884.00
2018-09-08T11:16:51.799Z,5204.00
2018-09-08T11:17:52.100Z,6232.00
2018-09-08T11:18:51.854Z,8784.00
2018-09-08T11:19:51.820Z,7200.00
2018-09-08T11:20:51.761Z,5828.00
2018-09-08T11:21:51.762Z,8168.00
2018-09-08T11:22:51.737Z,5992.00
2018-09-08T11:23:51.758Z,4240.00
2018-09-08T11:24:52.018Z,6472.00
2018-09-08T11:25:52.017Z,6576.00
2018-09-08T11:26:51.693Z,7824.00
2018-09-08T11:27:51.678Z,6588.00
2018-09-08T11:28:51.679Z,6504.00
2018-09-08T11:29:51.663Z,12736.00
2018-09-08T11:30:51.657Z,7760.00
2018-09-08T11:31:52.120Z,11128.00
2018-09-08T11:32:51.643Z,8244.00
2018-09-08T11:33:51.632Z,8528.00
2018-09-08T11:34:51.620Z,10656.00
2018-09-08T11:35:51.604Z,10016.00
2018-09-08T11:36:51.797Z,7876.00
2018-09-08T11:37:51.648Z,9848.00
2018-09-08T11:38:51.627Z,33344.00
2018-09-08T11:39:51.627Z,8264.00
2018-09-08T11:40:51.555Z,6868.00
2018-09-08T11:41:51.543Z,7916.00
2018-09-08T11:42:51.528Z,6400.00
2018-09-08T11:43:51.522Z,7976.00
2018-09-08T11:44:52.085Z,7144.00
2018-09-08T11:45:51.507Z,7688.00
2018-09-08T11:46:51.487Z,5624.00
2018-09-08T11:47:51.478Z,7656.00
2018-09-08T11:48:51.467Z,7956.00
2018-09-08T11:49:51.461Z,6156.00
2018-09-08T11:50:51.750Z,4768.00
2018-09-08T11:52:51.495Z,6512.00
2018-09-08T11:53:51.422Z,4468.00
2018-09-08T11:54:51.409Z,6864.00
2018-09-08T11:55:51.454Z,5664.00
2018-09-08T11:56:51.391Z,6872.00
2018-09-08T11:57:51.755Z,7996.00
2018-09-08T11:58:51.373Z,6776.00
2018-09-08T11:59:51.504Z,5768.00
2018-09-08T12:00:51.352Z,7080.00
2018-09-08T12:01:51.578Z,7480.00
2018-09-08T12:02:51.535Z,8784.00
2018-09-08T12:03:51.866Z,12536.00
2018-09-08T12:04:51.581Z,12712.00
2018-09-08T12:05:51.528Z,14468.00
2018-09-08T12:06:51.330Z,22752.00
2018-09-08T12:07:51.334Z,5160.00
2018-09-08T12:08:51.263Z,7528.00
2018-09-08T12:09:51.856Z,7972.00
2018-09-08T12:10:51.249Z,6836.00
2018-09-08T12:11:51.374Z,6912.00
2018-09-08T12:12:51.389Z,5908.00
2018-09-08T12:13:51.477Z,6944.00
2018-09-08T12:14:51.429Z,4964.00
2018-09-08T12:15:51.842Z,8432.00
2018-09-08T12:16:51.178Z,4412.00
2018-09-08T12:18:51.150Z,4400.00
2018-09-08T12:19:52.522Z,9348.00
2018-09-08T12:20:51.181Z,10252.00
2018-09-08T12:21:51.656Z,7620.00
2018-09-08T12:22:52.530Z,9784.00
2018-09-08T12:23:51.098Z,0.00
2018-09-08T12:24:51.142Z,6624.00
2018-09-08T12:25:51.413Z,18432.00
2018-09-08T12:26:51.135Z,8676.00
2018-09-08T12:27:51.418Z,8572.00
2018-09-08T12:28:51.038Z,7608.00
2018-09-08T12:29:51.334Z,6620.00
2018-09-08T12:30:51.448Z,6312.00
2018-09-08T12:31:51.391Z,6388.00
2018-09-08T12:32:58.405Z,5224.00
2018-09-08T12:34:08.493Z,5164.00
2018-09-08T12:35:10.948Z,5804.00
2018-09-08T12:35:57.910Z,5388.00
2018-09-08T12:37:04.200Z,7220.00
2018-09-08T12:37:50.947Z,6480.00
2018-09-08T12:38:51.565Z,6068.00
2018-09-08T12:39:51.133Z,5296.00
2018-09-08T12:40:57.535Z,5676.00
2018-09-08T12:41:52.623Z,5752.00
2018-09-08T12:42:50.900Z,7288.00
2018-09-08T12:43:51.462Z,6552.00
2018-09-08T12:44:50.868Z,8596.00
2018-09-08T12:45:50.909Z,5920.00
2018-09-08T12:46:50.860Z,5636.00
2018-09-08T12:47:51.187Z,5520.00
2018-09-08T12:48:50.830Z,5240.00
2018-09-08T12:49:50.823Z,5400.00
2018-09-08T12:50:50.908Z,6216.00
2018-09-08T12:51:50.805Z,4720.00
2018-09-08T12:52:50.854Z,5384.00
2018-09-08T12:53:50.776Z,5868.00
2018-09-08T12:54:51.117Z,5152.00
2018-09-08T12:55:50.758Z,7024.00
2018-09-08T12:56:51.352Z,11648.00
2018-09-08T12:57:52.147Z,7088.00
2018-09-08T12:58:51.332Z,6984.00
2018-09-08T12:59:50.714Z,5180.00
2018-09-08T13:00:50.706Z,5076.00
2018-09-08T13:01:51.039Z,7860.00
2018-09-08T13:02:50.747Z,5096.00
2018-09-08T13:03:50.731Z,6872.00
2018-09-08T13:04:50.896Z,5652.00
2018-09-08T13:06:50.635Z,5380.00
2018-09-08T13:07:50.986Z,6804.00
2018-09-08T13:08:50.990Z,5452.00
2018-09-08T13:09:50.608Z,6448.00
2018-09-08T13:10:50.598Z,5548.00
2018-09-08T13:11:50.641Z,4124.00
2018-09-08T13:12:50.645Z,4204.00
2018-09-08T13:13:50.870Z,7040.00
2018-09-08T13:14:50.546Z,5016.00
2018-09-08T13:15:50.835Z,5316.00
2018-09-08T13:16:50.593Z,11904.00
2018-09-08T13:17:50.515Z,11960.00